sensor_id;sensor_type;location;lat;lon;timestamp;P1;durP1;ratioP1;P2;durP2;ratioP2
36457;SDS011;22480;50.546;12.292;2024-01-07T00:00:06;147.55;;;25.90;;
36457;SDS011;22480;50.546;12.292;2024-01-07T00:02:32;268.30;;;37.10;;
36457;SDS011;22480;50.546;12.292;2024-01-07T00:04:58;358.38;;;44.25;;
36457;SDS011;22480;50.546;12.292;2024-01-07T00:07:24;285.53;;;35.97;;
36457;SDS011;22480;50.546;12.292;2024-01-07T00:09:50;397.80;;;46.47;;
36457;SDS011;22480;50.546;12.292;2024-01-07T00:12:15;326.97;;;34.37;;
36457;SDS011;22480;50.546;12.292;2024-01-07T00:14:42;343.53;;;38.57;;
36457;SDS011;22480;50.546;12.292;2024-01-07T00:17:08;311.80;;;39.20;;
36457;SDS011;22480;50.546;12.292;2024-01-07T00:19:35;217.33;;;28.97;;
36457;SDS011;22480;50.546;12.292;2024-01-07T00:22:02;254.40;;;32.53;;
36457;SDS011;22480;50.546;12.292;2024-01-07T00:24:28;212.43;;;33.33;;
36457;SDS011;22480;50.546;12.292;2024-01-07T00:26:54;236.43;;;28.90;;
36457;SDS011;22480;50.546;12.292;2024-01-07T00:29:20;357.07;;;35.93;;
36457;SDS011;22480;50.546;12.292;2024-01-07T00:31:46;218.40;;;24.77;;
36457;SDS011;22480;50.546;12.292;2024-01-07T00:34:12;234.13;;;25.70;;
36457;SDS011;22480;50.546;12.292;2024-01-07T00:36:38;207.57;;;23.70;;
36457;SDS011;22480;50.546;12.292;2024-01-07T00:39:04;186.27;;;23.00;;
36457;SDS011;22480;50.546;12.292;2024-01-07T00:41:30;401.50;;;38.47;;
36457;SDS011;22480;50.546;12.292;2024-01-07T00:43:56;322.07;;;37.30;;
36457;SDS011;22480;50.546;12.292;2024-01-07T00:46:22;288.67;;;36.60;;
36457;SDS011;22480;50.546;12.292;2024-01-07T00:48:47;450.27;;;52.23;;
36457;SDS011;22480;50.546;12.292;2024-01-07T00:51:13;289.90;;;36.70;;
36457;SDS011;22480;50.546;12.292;2024-01-07T00:53:39;379.30;;;45.63;;
36457;SDS011;22480;50.546;12.292;2024-01-07T00:56:05;326.47;;;37.63;;
36457;SDS011;22480;50.546;12.292;2024-01-07T00:58:31;316.03;;;40.27;;
36457;SDS011;22480;50.546;12.292;2024-01-07T01:00:57;410.63;;;48.43;;
36457;SDS011;22480;50.546;12.292;2024-01-07T01:03:25;260.63;;;38.47;;
36457;SDS011;22480;50.546;12.292;2024-01-07T01:05:51;282.90;;;38.97;;
36457;SDS011;22480;50.546;12.292;2024-01-07T01:08:17;286.63;;;39.13;;
36457;SDS011;22480;50.546;12.292;2024-01-07T01:10:43;411.00;;;50.60;;
36457;SDS011;22480;50.546;12.292;2024-01-07T01:13:09;311.30;;;41.07;;
36457;SDS011;22480;50.546;12.292;2024-01-07T01:15:36;278.57;;;39.93;;
36457;SDS011;22480;50.546;12.292;2024-01-07T01:18:01;268.63;;;39.10;;
36457;SDS011;22480;50.546;12.292;2024-01-07T01:20:27;268.23;;;36.60;;
36457;SDS011;22480;50.546;12.292;2024-01-07T01:22:53;325.57;;;39.77;;
36457;SDS011;22480;50.546;12.292;2024-01-07T01:25:19;282.80;;;36.93;;
36457;SDS011;22480;50.546;12.292;2024-01-07T01:27:44;410.27;;;45.10;;
36457;SDS011;22480;50.546;12.292;2024-01-07T01:30:10;255.37;;;32.80;;
36457;SDS011;22480;50.546;12.292;2024-01-07T01:32:36;276.40;;;36.90;;
36457;SDS011;22480;50.546;12.292;2024-01-07T01:35:04;250.23;;;36.20;;
36457;SDS011;22480;50.546;12.292;2024-01-07T01:37:30;168.57;;;30.87;;
36457;SDS011;22480;50.546;12.292;2024-01-07T01:39:58;257.03;;;39.90;;
36457;SDS011;22480;50.546;12.292;2024-01-07T01:42:24;259.90;;;38.40;;
36457;SDS011;22480;50.546;12.292;2024-01-07T01:44:50;188.10;;;39.30;;
36457;SDS011;22480;50.546;12.292;2024-01-07T01:47:17;71.77;;;25.20;;
36457;SDS011;22480;50.546;12.292;2024-01-07T01:49:43;75.70;;;26.00;;
36457;SDS011;22480;50.546;12.292;2024-01-07T01:52:11;76.37;;;27.33;;
36457;SDS011;22480;50.546;12.292;2024-01-07T01:54:38;76.63;;;27.93;;
36457;SDS011;22480;50.546;12.292;2024-01-07T01:57:05;74.30;;;24.13;;
36457;SDS011;22480;50.546;12.292;2024-01-07T01:59:31;63.37;;;25.50;;
36457;SDS011;22480;50.546;12.292;2024-01-07T02:01:58;79.17;;;26.37;;
36457;SDS011;22480;50.546;12.292;2024-01-07T02:04:25;76.37;;;27.23;;
36457;SDS011;22480;50.546;12.292;2024-01-07T02:06:51;68.77;;;24.63;;
36457;SDS011;22480;50.546;12.292;2024-01-07T02:09:17;100.40;;;26.57;;
36457;SDS011;22480;50.546;12.292;2024-01-07T02:11:43;73.63;;;26.50;;
36457;SDS011;22480;50.546;12.292;2024-01-07T02:14:08;72.70;;;25.43;;
36457;SDS011;22480;50.546;12.292;2024-01-07T02:16:34;81.20;;;25.23;;
36457;SDS011;22480;50.546;12.292;2024-01-07T02:19:00;75.63;;;22.87;;
36457;SDS011;22480;50.546;12.292;2024-01-07T02:21:26;73.33;;;25.70;;
36457;SDS011;22480;50.546;12.292;2024-01-07T02:23:52;68.03;;;24.20;;
36457;SDS011;22480;50.546;12.292;2024-01-07T02:26:17;60.93;;;23.80;;
36457;SDS011;22480;50.546;12.292;2024-01-07T02:28:43;55.17;;;22.63;;
36457;SDS011;22480;50.546;12.292;2024-01-07T02:31:09;56.07;;;22.27;;
36457;SDS011;22480;50.546;12.292;2024-01-07T02:33:34;60.77;;;23.80;;
36457;SDS011;22480;50.546;12.292;2024-01-07T02:36:00;77.40;;;26.93;;
36457;SDS011;22480;50.546;12.292;2024-01-07T02:38:26;63.83;;;25.93;;
36457;SDS011;22480;50.546;12.292;2024-01-07T02:40:52;73.47;;;29.90;;
36457;SDS011;22480;50.546;12.292;2024-01-07T02:43:17;70.93;;;29.20;;
36457;SDS011;22480;50.546;12.292;2024-01-07T02:45:43;68.83;;;29.97;;
36457;SDS011;22480;50.546;12.292;2024-01-07T02:48:09;67.30;;;28.00;;
36457;SDS011;22480;50.546;12.292;2024-01-07T02:50:34;65.03;;;28.10;;
36457;SDS011;22480;50.546;12.292;2024-01-07T02:53:00;69.20;;;29.37;;
36457;SDS011;22480;50.546;12.292;2024-01-07T02:55:26;65.53;;;28.27;;
36457;SDS011;22480;50.546;12.292;2024-01-07T02:57:51;58.60;;;28.23;;
36457;SDS011;22480;50.546;12.292;2024-01-07T03:00:17;58.70;;;27.47;;
36457;SDS011;22480;50.546;12.292;2024-01-07T03:02:43;63.27;;;28.77;;
36457;SDS011;22480;50.546;12.292;2024-01-07T03:05:09;59.27;;;28.40;;
36457;SDS011;22480;50.546;12.292;2024-01-07T03:07:35;60.40;;;26.40;;
36457;SDS011;22480;50.546;12.292;2024-01-07T03:10:02;57.17;;;28.23;;
36457;SDS011;22480;50.546;12.292;2024-01-07T03:12:28;61.40;;;29.63;;
36457;SDS011;22480;50.546;12.292;2024-01-07T03:14:53;64.13;;;30.67;;
36457;SDS011;22480;50.546;12.292;2024-01-07T03:17:19;83.37;;;33.10;;
36457;SDS011;22480;50.546;12.292;2024-01-07T03:19:46;68.87;;;32.77;;
36457;SDS011;22480;50.546;12.292;2024-01-07T03:22:12;93.43;;;33.93;;
36457;SDS011;22480;50.546;12.292;2024-01-07T03:24:37;151.40;;;37.97;;
36457;SDS011;22480;50.546;12.292;2024-01-07T03:27:03;202.27;;;40.93;;
36457;SDS011;22480;50.546;12.292;2024-01-07T03:29:29;258.97;;;42.93;;
36457;SDS011;22480;50.546;12.292;2024-01-07T03:31:55;224.03;;;44.20;;
36457;SDS011;22480;50.546;12.292;2024-01-07T03:34:20;315.70;;;43.00;;
36457;SDS011;22480;50.546;12.292;2024-01-07T03:36:46;285.40;;;41.20;;
36457;SDS011;22480;50.546;12.292;2024-01-07T03:39:12;209.80;;;39.07;;
36457;SDS011;22480;50.546;12.292;2024-01-07T03:41:37;222.63;;;37.83;;
36457;SDS011;22480;50.546;12.292;2024-01-07T03:44:03;197.00;;;34.10;;
36457;SDS011;22480;50.546;12.292;2024-01-07T03:46:29;258.07;;;39.30;;
36457;SDS011;22480;50.546;12.292;2024-01-07T03:48:54;302.63;;;45.33;;
36457;SDS011;22480;50.546;12.292;2024-01-07T03:51:20;256.90;;;38.83;;
36457;SDS011;22480;50.546;12.292;2024-01-07T03:53:46;159.30;;;36.17;;
36457;SDS011;22480;50.546;12.292;2024-01-07T03:56:11;113.33;;;34.03;;
36457;SDS011;22480;50.546;12.292;2024-01-07T03:58:37;77.70;;;31.33;;
36457;SDS011;22480;50.546;12.292;2024-01-07T04:01:03;69.30;;;29.90;;
36457;SDS011;22480;50.546;12.292;2024-01-07T04:03:29;64.80;;;28.73;;
36457;SDS011;22480;50.546;12.292;2024-01-07T04:05:54;70.23;;;31.03;;
36457;SDS011;22480;50.546;12.292;2024-01-07T04:08:20;60.13;;;28.07;;
36457;SDS011;22480;50.546;12.292;2024-01-07T04:10:46;59.53;;;28.50;;
36457;SDS011;22480;50.546;12.292;2024-01-07T04:13:11;63.07;;;29.13;;
36457;SDS011;22480;50.546;12.292;2024-01-07T04:15:37;65.43;;;27.80;;
36457;SDS011;22480;50.546;12.292;2024-01-07T04:18:03;58.00;;;26.00;;
36457;SDS011;22480;50.546;12.292;2024-01-07T04:20:30;51.47;;;22.63;;
36457;SDS011;22480;50.546;12.292;2024-01-07T04:22:56;63.97;;;26.30;;
36457;SDS011;22480;50.546;12.292;2024-01-07T04:25:22;64.43;;;27.97;;
36457;SDS011;22480;50.546;12.292;2024-01-07T04:27:48;56.53;;;25.03;;
36457;SDS011;22480;50.546;12.292;2024-01-07T04:30:14;56.57;;;26.50;;
36457;SDS011;22480;50.546;12.292;2024-01-07T04:32:40;54.93;;;24.53;;
36457;SDS011;22480;50.546;12.292;2024-01-07T04:35:05;63.10;;;25.40;;
36457;SDS011;22480;50.546;12.292;2024-01-07T04:37:32;53.43;;;25.03;;
36457;SDS011;22480;50.546;12.292;2024-01-07T04:39:58;72.07;;;27.17;;
36457;SDS011;22480;50.546;12.292;2024-01-07T04:42:24;52.33;;;25.43;;
36457;SDS011;22480;50.546;12.292;2024-01-07T04:44:50;59.70;;;25.90;;
36457;SDS011;22480;50.546;12.292;2024-01-07T04:47:23;49.77;;;24.60;;
36457;SDS011;22480;50.546;12.292;2024-01-07T04:49:53;51.07;;;23.93;;
36457;SDS011;22480;50.546;12.292;2024-01-07T04:52:19;46.10;;;21.87;;
36457;SDS011;22480;50.546;12.292;2024-01-07T04:54:44;53.50;;;25.93;;
36457;SDS011;22480;50.546;12.292;2024-01-07T04:57:10;88.53;;;27.30;;
36457;SDS011;22480;50.546;12.292;2024-01-07T04:59:36;112.20;;;26.37;;
36457;SDS011;22480;50.546;12.292;2024-01-07T05:02:02;75.73;;;22.13;;
36457;SDS011;22480;50.546;12.292;2024-01-07T05:04:28;80.07;;;24.57;;
36457;SDS011;22480;50.546;12.292;2024-01-07T05:06:54;92.03;;;23.87;;
36457;SDS011;22480;50.546;12.292;2024-01-07T05:09:19;64.83;;;25.73;;
36457;SDS011;22480;50.546;12.292;2024-01-07T05:11:45;75.03;;;27.10;;
36457;SDS011;22480;50.546;12.292;2024-01-07T05:14:11;73.13;;;24.63;;
36457;SDS011;22480;50.546;12.292;2024-01-07T05:16:37;89.40;;;26.97;;
36457;SDS011;22480;50.546;12.292;2024-01-07T05:19:02;91.20;;;28.10;;
36457;SDS011;22480;50.546;12.292;2024-01-07T05:21:29;94.80;;;27.27;;
36457;SDS011;22480;50.546;12.292;2024-01-07T05:23:55;85.37;;;25.43;;
36457;SDS011;22480;50.546;12.292;2024-01-07T05:26:21;84.03;;;29.37;;
36457;SDS011;22480;50.546;12.292;2024-01-07T05:28:47;85.23;;;27.00;;
36457;SDS011;22480;50.546;12.292;2024-01-07T05:31:18;74.87;;;25.50;;
36457;SDS011;22480;50.546;12.292;2024-01-07T05:33:44;66.77;;;25.03;;
36457;SDS011;22480;50.546;12.292;2024-01-07T05:36:11;61.13;;;22.73;;
36457;SDS011;22480;50.546;12.292;2024-01-07T05:38:36;70.97;;;23.40;;
36457;SDS011;22480;50.546;12.292;2024-01-07T05:41:02;62.90;;;23.63;;
36457;SDS011;22480;50.546;12.292;2024-01-07T05:43:28;57.63;;;23.90;;
36457;SDS011;22480;50.546;12.292;2024-01-07T05:45:54;69.50;;;24.83;;
36457;SDS011;22480;50.546;12.292;2024-01-07T05:48:23;70.43;;;24.00;;
36457;SDS011;22480;50.546;12.292;2024-01-07T05:50:49;74.53;;;26.33;;
36457;SDS011;22480;50.546;12.292;2024-01-07T05:53:15;69.50;;;24.93;;
36457;SDS011;22480;50.546;12.292;2024-01-07T05:55:42;67.03;;;22.00;;
36457;SDS011;22480;50.546;12.292;2024-01-07T05:58:08;60.53;;;23.03;;
36457;SDS011;22480;50.546;12.292;2024-01-07T06:00:33;58.60;;;22.03;;
36457;SDS011;22480;50.546;12.292;2024-01-07T06:02:59;66.63;;;25.77;;
36457;SDS011;22480;50.546;12.292;2024-01-07T06:05:25;61.67;;;26.30;;
36457;SDS011;22480;50.546;12.292;2024-01-07T06:07:51;41.37;;;21.97;;
36457;SDS011;22480;50.546;12.292;2024-01-07T06:10:17;51.93;;;22.13;;
36457;SDS011;22480;50.546;12.292;2024-01-07T06:12:43;50.80;;;24.40;;
36457;SDS011;22480;50.546;12.292;2024-01-07T06:15:08;48.77;;;23.77;;
36457;SDS011;22480;50.546;12.292;2024-01-07T06:17:34;57.57;;;24.93;;
36457;SDS011;22480;50.546;12.292;2024-01-07T06:20:00;45.20;;;23.67;;
36457;SDS011;22480;50.546;12.292;2024-01-07T06:22:26;47.27;;;23.57;;
36457;SDS011;22480;50.546;12.292;2024-01-07T06:24:51;55.67;;;24.17;;
36457;SDS011;22480;50.546;12.292;2024-01-07T06:27:17;46.87;;;22.53;;
36457;SDS011;22480;50.546;12.292;2024-01-07T06:29:43;50.60;;;25.07;;
36457;SDS011;22480;50.546;12.292;2024-01-07T06:32:09;47.67;;;25.47;;
36457;SDS011;22480;50.546;12.292;2024-01-07T06:34:35;44.60;;;23.10;;
36457;SDS011;22480;50.546;12.292;2024-01-07T06:37:01;51.33;;;24.70;;
36457;SDS011;22480;50.546;12.292;2024-01-07T06:39:27;47.20;;;22.43;;
36457;SDS011;22480;50.546;12.292;2024-01-07T06:41:52;48.57;;;23.97;;
36457;SDS011;22480;50.546;12.292;2024-01-07T06:44:18;48.63;;;21.87;;
36457;SDS011;22480;50.546;12.292;2024-01-07T06:46:44;48.77;;;21.77;;
36457;SDS011;22480;50.546;12.292;2024-01-07T06:49:10;43.13;;;21.83;;
36457;SDS011;22480;50.546;12.292;2024-01-07T06:51:37;45.87;;;22.40;;
36457;SDS011;22480;50.546;12.292;2024-01-07T06:54:03;48.43;;;24.13;;
36457;SDS011;22480;50.546;12.292;2024-01-07T06:56:30;46.73;;;24.40;;
36457;SDS011;22480;50.546;12.292;2024-01-07T06:58:56;42.13;;;23.30;;
36457;SDS011;22480;50.546;12.292;2024-01-07T07:01:22;44.47;;;24.83;;
36457;SDS011;22480;50.546;12.292;2024-01-07T07:03:48;45.30;;;23.03;;
36457;SDS011;22480;50.546;12.292;2024-01-07T07:06:15;44.27;;;22.20;;
36457;SDS011;22480;50.546;12.292;2024-01-07T07:08:41;50.40;;;21.53;;
36457;SDS011;22480;50.546;12.292;2024-01-07T07:11:07;40.07;;;21.47;;
36457;SDS011;22480;50.546;12.292;2024-01-07T07:13:33;41.40;;;21.53;;
36457;SDS011;22480;50.546;12.292;2024-01-07T07:15:59;32.90;;;17.60;;
36457;SDS011;22480;50.546;12.292;2024-01-07T07:18:25;33.20;;;17.67;;
36457;SDS011;22480;50.546;12.292;2024-01-07T07:20:50;38.10;;;19.73;;
36457;SDS011;22480;50.546;12.292;2024-01-07T07:23:16;40.03;;;20.63;;
36457;SDS011;22480;50.546;12.292;2024-01-07T07:25:42;39.47;;;19.33;;
36457;SDS011;22480;50.546;12.292;2024-01-07T07:28:08;35.53;;;18.33;;
36457;SDS011;22480;50.546;12.292;2024-01-07T07:30:34;37.37;;;18.63;;
36457;SDS011;22480;50.546;12.292;2024-01-07T07:32:59;38.53;;;19.20;;
36457;SDS011;22480;50.546;12.292;2024-01-07T07:35:25;38.07;;;18.47;;
36457;SDS011;22480;50.546;12.292;2024-01-07T07:37:51;41.67;;;19.07;;
36457;SDS011;22480;50.546;12.292;2024-01-07T07:40:16;39.07;;;18.83;;
36457;SDS011;22480;50.546;12.292;2024-01-07T07:42:42;41.30;;;20.57;;
36457;SDS011;22480;50.546;12.292;2024-01-07T07:45:08;39.30;;;20.20;;
36457;SDS011;22480;50.546;12.292;2024-01-07T07:47:34;45.80;;;22.30;;
36457;SDS011;22480;50.546;12.292;2024-01-07T07:50:00;36.90;;;19.93;;
36457;SDS011;22480;50.546;12.292;2024-01-07T07:52:27;42.53;;;21.40;;
36457;SDS011;22480;50.546;12.292;2024-01-07T07:54:53;43.73;;;21.63;;
36457;SDS011;22480;50.546;12.292;2024-01-07T07:57:19;48.23;;;24.33;;
36457;SDS011;22480;50.546;12.292;2024-01-07T07:59:46;45.90;;;22.37;;
36457;SDS011;22480;50.546;12.292;2024-01-07T08:02:15;37.58;;;19.65;;
36457;SDS011;22480;50.546;12.292;2024-01-07T08:04:41;42.17;;;20.63;;
36457;SDS011;22480;50.546;12.292;2024-01-07T08:07:10;32.83;;;18.70;;
36457;SDS011;22480;50.546;12.292;2024-01-07T08:09:36;40.67;;;19.67;;
36457;SDS011;22480;50.546;12.292;2024-01-07T08:12:05;41.43;;;19.77;;
36457;SDS011;22480;50.546;12.292;2024-01-07T08:14:31;41.07;;;19.37;;
36457;SDS011;22480;50.546;12.292;2024-01-07T08:16:57;37.57;;;18.97;;
36457;SDS011;22480;50.546;12.292;2024-01-07T08:19:23;38.53;;;19.37;;
36457;SDS011;22480;50.546;12.292;2024-01-07T08:21:49;32.80;;;17.83;;
36457;SDS011;22480;50.546;12.292;2024-01-07T08:24:15;40.83;;;17.53;;
36457;SDS011;22480;50.546;12.292;2024-01-07T08:26:43;34.10;;;17.23;;
36457;SDS011;22480;50.546;12.292;2024-01-07T08:29:09;32.03;;;17.20;;
36457;SDS011;22480;50.546;12.292;2024-01-07T08:31:35;27.77;;;16.17;;
36457;SDS011;22480;50.546;12.292;2024-01-07T08:34:01;34.03;;;16.27;;
36457;SDS011;22480;50.546;12.292;2024-01-07T08:36:44;30.50;;;14.87;;
36457;SDS011;22480;50.546;12.292;2024-01-07T08:39:17;30.77;;;15.30;;
36457;SDS011;22480;50.546;12.292;2024-01-07T08:41:43;29.90;;;16.07;;
36457;SDS011;22480;50.546;12.292;2024-01-07T08:44:16;27.37;;;13.33;;
36457;SDS011;22480;50.546;12.292;2024-01-07T08:46:42;26.70;;;14.20;;
36457;SDS011;22480;50.546;12.292;2024-01-07T08:49:11;26.13;;;13.73;;
36457;SDS011;22480;50.546;12.292;2024-01-07T08:51:40;25.87;;;12.33;;
36457;SDS011;22480;50.546;12.292;2024-01-07T08:54:06;24.20;;;12.80;;
36457;SDS011;22480;50.546;12.292;2024-01-07T08:56:31;22.00;;;11.83;;
36457;SDS011;22480;50.546;12.292;2024-01-07T08:58:57;18.57;;;10.93;;
36457;SDS011;22480;50.546;12.292;2024-01-07T09:01:24;24.50;;;13.13;;
36457;SDS011;22480;50.546;12.292;2024-01-07T09:03:49;26.83;;;13.70;;
36457;SDS011;22480;50.546;12.292;2024-01-07T09:06:15;25.17;;;13.53;;
36457;SDS011;22480;50.546;12.292;2024-01-07T09:08:41;27.10;;;13.47;;
36457;SDS011;22480;50.546;12.292;2024-01-07T09:11:07;25.63;;;13.67;;
36457;SDS011;22480;50.546;12.292;2024-01-07T09:13:36;27.27;;;13.00;;
36457;SDS011;22480;50.546;12.292;2024-01-07T09:16:02;21.10;;;11.87;;
36457;SDS011;22480;50.546;12.292;2024-01-07T09:18:28;22.47;;;12.23;;
36457;SDS011;22480;50.546;12.292;2024-01-07T09:20:53;19.27;;;10.93;;
36457;SDS011;22480;50.546;12.292;2024-01-07T09:23:19;39.33;;;17.67;;
36457;SDS011;22480;50.546;12.292;2024-01-07T09:25:45;23.43;;;13.20;;
36457;SDS011;22480;50.546;12.292;2024-01-07T09:28:11;19.23;;;11.53;;
36457;SDS011;22480;50.546;12.292;2024-01-07T09:30:38;25.87;;;15.13;;
36457;SDS011;22480;50.546;12.292;2024-01-07T09:33:04;27.23;;;13.10;;
36457;SDS011;22480;50.546;12.292;2024-01-07T09:35:30;19.13;;;12.50;;
36457;SDS011;22480;50.546;12.292;2024-01-07T09:37:56;19.60;;;10.67;;
36457;SDS011;22480;50.546;12.292;2024-01-07T09:40:22;16.97;;;10.37;;
36457;SDS011;22480;50.546;12.292;2024-01-07T09:42:47;16.27;;;10.67;;
36457;SDS011;22480;50.546;12.292;2024-01-07T09:45:14;19.13;;;11.10;;
36457;SDS011;22480;50.546;12.292;2024-01-07T09:47:40;16.30;;;10.20;;
36457;SDS011;22480;50.546;12.292;2024-01-07T09:50:09;20.10;;;11.17;;
36457;SDS011;22480;50.546;12.292;2024-01-07T09:52:35;17.40;;;10.50;;
36457;SDS011;22480;50.546;12.292;2024-01-07T09:55:08;16.80;;;10.13;;
36457;SDS011;22480;50.546;12.292;2024-01-07T09:57:34;18.97;;;11.67;;
36457;SDS011;22480;50.546;12.292;2024-01-07T10:00:01;19.60;;;12.43;;
36457;SDS011;22480;50.546;12.292;2024-01-07T10:02:37;17.73;;;10.27;;
36457;SDS011;22480;50.546;12.292;2024-01-07T10:05:06;16.03;;;11.23;;
36457;SDS011;22480;50.546;12.292;2024-01-07T10:07:32;15.53;;;9.67;;
36457;SDS011;22480;50.546;12.292;2024-01-07T10:09:58;15.30;;;10.87;;
36457;SDS011;22480;50.546;12.292;2024-01-07T10:12:34;15.53;;;10.27;;
36457;SDS011;22480;50.546;12.292;2024-01-07T10:15:00;18.73;;;11.13;;
36457;SDS011;22480;50.546;12.292;2024-01-07T10:17:26;18.63;;;11.17;;
36457;SDS011;22480;50.546;12.292;2024-01-07T10:19:53;17.23;;;11.50;;
36457;SDS011;22480;50.546;12.292;2024-01-07T10:22:18;17.73;;;10.83;;
36457;SDS011;22480;50.546;12.292;2024-01-07T10:24:45;16.00;;;10.60;;
36457;SDS011;22480;50.546;12.292;2024-01-07T10:27:10;15.77;;;10.43;;
36457;SDS011;22480;50.546;12.292;2024-01-07T10:29:37;21.23;;;12.73;;
36457;SDS011;22480;50.546;12.292;2024-01-07T10:32:04;17.87;;;11.70;;
36457;SDS011;22480;50.546;12.292;2024-01-07T10:34:31;19.03;;;10.77;;
36457;SDS011;22480;50.546;12.292;2024-01-07T10:36:58;16.00;;;10.40;;
36457;SDS011;22480;50.546;12.292;2024-01-07T10:39:25;17.40;;;11.03;;
36457;SDS011;22480;50.546;12.292;2024-01-07T10:41:54;18.30;;;9.97;;
36457;SDS011;22480;50.546;12.292;2024-01-07T10:44:29;16.67;;;11.67;;
36457;SDS011;22480;50.546;12.292;2024-01-07T10:46:56;16.93;;;10.27;;
36457;SDS011;22480;50.546;12.292;2024-01-07T10:49:24;16.87;;;10.00;;
36457;SDS011;22480;50.546;12.292;2024-01-07T10:54:24;12.37;;;8.73;;
36457;SDS011;22480;50.546;12.292;2024-01-07T10:56:59;15.63;;;9.97;;
36457;SDS011;22480;50.546;12.292;2024-01-07T10:59:53;17.03;;;9.87;;
36457;SDS011;22480;50.546;12.292;2024-01-07T11:02:21;14.50;;;10.03;;
36457;SDS011;22480;50.546;12.292;2024-01-07T11:09:56;14.70;;;9.13;;
36457;SDS011;22480;50.546;12.292;2024-01-07T11:12:55;14.97;;;8.07;;
36457;SDS011;22480;50.546;12.292;2024-01-07T11:18:17;12.40;;;8.60;;
36457;SDS011;22480;50.546;12.292;2024-01-07T11:20:46;16.83;;;9.80;;
36457;SDS011;22480;50.546;12.292;2024-01-07T11:23:31;17.00;;;9.63;;
36457;SDS011;22480;50.546;12.292;2024-01-07T11:26:05;12.63;;;8.60;;
36457;SDS011;22480;50.546;12.292;2024-01-07T11:34:07;11.50;;;8.13;;
36457;SDS011;22480;50.546;12.292;2024-01-07T11:36:36;13.50;;;8.83;;
36457;SDS011;22480;50.546;12.292;2024-01-07T11:39:04;11.80;;;7.70;;
36457;SDS011;22480;50.546;12.292;2024-01-07T11:41:34;10.77;;;7.63;;
36457;SDS011;22480;50.546;12.292;2024-01-07T11:44:01;12.60;;;6.63;;
36457;SDS011;22480;50.546;12.292;2024-01-07T11:46:28;13.67;;;7.67;;
36457;SDS011;22480;50.546;12.292;2024-01-07T11:48:56;9.73;;;6.97;;
36457;SDS011;22480;50.546;12.292;2024-01-07T11:51:26;11.90;;;7.43;;
36457;SDS011;22480;50.546;12.292;2024-01-07T11:53:53;10.35;;;6.93;;
36457;SDS011;22480;50.546;12.292;2024-01-07T11:56:19;13.63;;;7.50;;
36457;SDS011;22480;50.546;12.292;2024-01-07T11:58:45;10.07;;;6.90;;
36457;SDS011;22480;50.546;12.292;2024-01-07T12:01:11;10.33;;;6.90;;
36457;SDS011;22480;50.546;12.292;2024-01-07T12:03:39;10.13;;;6.90;;
36457;SDS011;22480;50.546;12.292;2024-01-07T12:06:06;11.20;;;7.17;;
36457;SDS011;22480;50.546;12.292;2024-01-07T12:08:42;11.90;;;7.10;;
36457;SDS011;22480;50.546;12.292;2024-01-07T12:11:11;9.03;;;6.20;;
36457;SDS011;22480;50.546;12.292;2024-01-07T12:13:39;15.00;;;7.30;;
36457;SDS011;22480;50.546;12.292;2024-01-07T12:16:05;12.03;;;6.00;;
36457;SDS011;22480;50.546;12.292;2024-01-07T12:18:36;9.50;;;5.47;;
36457;SDS011;22480;50.546;12.292;2024-01-07T12:21:05;10.13;;;6.80;;
36457;SDS011;22480;50.546;12.292;2024-01-07T12:23:35;11.13;;;6.97;;
36457;SDS011;22480;50.546;12.292;2024-01-07T12:26:10;12.07;;;7.20;;
36457;SDS011;22480;50.546;12.292;2024-01-07T12:28:37;9.50;;;6.53;;
36457;SDS011;22480;50.546;12.292;2024-01-07T12:31:03;11.67;;;6.93;;
36457;SDS011;22480;50.546;12.292;2024-01-07T12:33:30;9.53;;;6.50;;
36457;SDS011;22480;50.546;12.292;2024-01-07T12:35:57;12.77;;;5.90;;
36457;SDS011;22480;50.546;12.292;2024-01-07T12:38:26;8.33;;;6.27;;
36457;SDS011;22480;50.546;12.292;2024-01-07T12:40:55;9.53;;;5.93;;
36457;SDS011;22480;50.546;12.292;2024-01-07T12:43:21;10.27;;;6.37;;
36457;SDS011;22480;50.546;12.292;2024-01-07T12:45:48;7.93;;;6.03;;
36457;SDS011;22480;50.546;12.292;2024-01-07T12:48:14;8.77;;;6.07;;
36457;SDS011;22480;50.546;12.292;2024-01-07T12:50:40;9.10;;;5.77;;
36457;SDS011;22480;50.546;12.292;2024-01-07T12:53:06;8.20;;;6.00;;
36457;SDS011;22480;50.546;12.292;2024-01-07T12:55:38;8.67;;;5.57;;
36457;SDS011;22480;50.546;12.292;2024-01-07T12:58:03;8.20;;;6.00;;
36457;SDS011;22480;50.546;12.292;2024-01-07T13:00:29;7.97;;;6.07;;
36457;SDS011;22480;50.546;12.292;2024-01-07T13:02:55;9.47;;;5.80;;
36457;SDS011;22480;50.546;12.292;2024-01-07T13:05:27;8.27;;;5.93;;
36457;SDS011;22480;50.546;12.292;2024-01-07T13:07:55;11.20;;;6.17;;
36457;SDS011;22480;50.546;12.292;2024-01-07T13:10:21;8.67;;;5.93;;
36457;SDS011;22480;50.546;12.292;2024-01-07T13:12:47;10.63;;;6.10;;
36457;SDS011;22480;50.546;12.292;2024-01-07T13:15:13;8.80;;;6.57;;
36457;SDS011;22480;50.546;12.292;2024-01-07T13:17:53;9.00;;;6.40;;
36457;SDS011;22480;50.546;12.292;2024-01-07T13:20:19;9.47;;;5.70;;
36457;SDS011;22480;50.546;12.292;2024-01-07T13:22:45;8.57;;;5.87;;
36457;SDS011;22480;50.546;12.292;2024-01-07T13:25:17;6.68;;;5.15;;
36457;SDS011;22480;50.546;12.292;2024-01-07T13:27:43;7.95;;;5.25;;
36457;SDS011;22480;50.546;12.292;2024-01-07T13:32:59;7.22;;;4.72;;
36457;SDS011;22480;50.546;12.292;2024-01-07T13:35:27;9.40;;;6.17;;
36457;SDS011;22480;50.546;12.292;2024-01-07T13:37:59;10.57;;;5.63;;
36457;SDS011;22480;50.546;12.292;2024-01-07T13:40:27;7.30;;;5.03;;
36457;SDS011;22480;50.546;12.292;2024-01-07T13:42:56;6.70;;;4.70;;
36457;SDS011;22480;50.546;12.292;2024-01-07T13:45:27;6.93;;;4.40;;
36457;SDS011;22480;50.546;12.292;2024-01-07T13:47:52;8.27;;;5.17;;
36457;SDS011;22480;50.546;12.292;2024-01-07T13:50:18;8.33;;;5.17;;
36457;SDS011;22480;50.546;12.292;2024-01-07T13:52:44;8.80;;;5.63;;
36457;SDS011;22480;50.546;12.292;2024-01-07T13:55:13;7.10;;;4.90;;
36457;SDS011;22480;50.546;12.292;2024-01-07T13:57:44;7.37;;;5.87;;
36457;SDS011;22480;50.546;12.292;2024-01-07T14:00:13;6.77;;;5.20;;
36457;SDS011;22480;50.546;12.292;2024-01-07T14:02:52;6.27;;;5.00;;
36457;SDS011;22480;50.546;12.292;2024-01-07T14:05:21;6.17;;;4.33;;
36457;SDS011;22480;50.546;12.292;2024-01-07T14:07:50;7.53;;;4.83;;
36457;SDS011;22480;50.546;12.292;2024-01-07T14:10:17;6.78;;;4.22;;
36457;SDS011;22480;50.546;12.292;2024-01-07T14:12:44;5.27;;;3.73;;
36457;SDS011;22480;50.546;12.292;2024-01-07T14:15:12;4.97;;;3.67;;
36457;SDS011;22480;50.546;12.292;2024-01-07T14:17:38;4.40;;;3.23;;
36457;SDS011;22480;50.546;12.292;2024-01-07T14:20:05;4.63;;;3.20;;
36457;SDS011;22480;50.546;12.292;2024-01-07T14:22:33;4.30;;;3.50;;
36457;SDS011;22480;50.546;12.292;2024-01-07T14:25:02;6.20;;;3.97;;
36457;SDS011;22480;50.546;12.292;2024-01-07T14:27:31;5.50;;;3.33;;